Time;durP1;ratioP1;P1;durP2;ratioP2;P2;SDS_P1;SDS_P2;PMS_P1;PMS_P2;Temp;Humidity;BMP_temperature;BMP_pressure;BME280_temperature;BME280_humidity;BME280_pressure;Samples;Min_cycle;Max_cycle;Signal;HPM_P1;HPM_P2
2020/12/17 00:00:23;;;;;;;9.88;7.95;;;;;;;13.26;49.16;101189.44;5015896;27;97988;-59
2020/12/17 00:02:49;;;;;;;8.52;7.63;;;;;;;13.25;49.37;101193.22;5011869;27;98137;-59
2020/12/17 00:05:15;;;;;;;9.75;7.97;;;;;;;13.24;49.39;101197.00;5011978;27;126984;-57
2020/12/17 00:07:41;;;;;;;9.35;8.18;;;;;;;13.21;49.20;101192.91;5011893;27;109782;-59
2020/12/17 00:10:09;;;;;;;9.95;8.23;;;;;;;13.20;49.29;101195.88;5025073;27;117654;-59
2020/12/17 00:12:36;;;;;;;9.10;7.70;;;;;;;13.18;49.23;101201.56;5025421;27;106463;-59
2020/12/17 00:15:08;;;;;;;9.02;8.10;;;;;;;13.16;49.15;101186.66;5025015;27;98876;-58
2020/12/17 00:17:48;;;;;;;9.25;8.25;;;;;;;13.12;49.29;101191.78;5025994;27;103077;-59
2020/12/17 00:20:17;;;;;;;9.00;8.10;;;;;;;13.13;49.15;101188.03;5024662;27;98069;-57
2020/12/17 00:22:43;;;;;;;9.38;8.38;;;;;;;13.12;48.92;101194.50;5024872;27;98036;-57
2020/12/17 00:25:11;;;;;;;9.52;8.07;;;;;;;13.10;49.03;101195.88;5007790;27;127840;-57
2020/12/17 00:27:38;;;;;;;9.15;8.25;;;;;;;13.10;49.09;101196.66;5005039;27;98199;-59
2020/12/17 00:30:09;;;;;;;9.18;8.23;;;;;;;13.08;48.96;101195.31;5005759;27;117050;-59
2020/12/17 00:32:36;;;;;;;9.43;8.33;;;;;;;13.10;48.60;101196.66;5005841;27;97805;-59
2020/12/17 00:35:02;;;;;;;9.25;8.15;;;;;;;13.06;48.84;101200.19;5004598;27;102445;-59
2020/12/17 00:37:32;;;;;;;10.10;7.88;;;;;;;13.04;48.88;101203.13;5005056;27;115420;-59
2020/12/17 00:39:58;;;;;;;8.88;7.97;;;;;;;13.02;48.72;101195.28;5004045;27;114479;-57
2020/12/17 00:42:24;;;;;;;9.32;8.23;;;;;;;13.04;48.90;101200.44;5005575;27;98011;-59
2020/12/17 00:44:50;;;;;;;8.57;7.68;;;;;;;13.08;48.12;101192.59;5002179;27;100680;-59
2020/12/17 00:47:16;;;;;;;9.38;8.05;;;;;;;13.07;48.32;101197.19;4985828;27;119332;-59
2020/12/17 00:49:43;;;;;;;9.02;8.13;;;;;;;13.09;48.19;101200.47;5003718;27;127540;-58
2020/12/17 00:52:09;;;;;;;9.45;7.75;;;;;;;13.10;48.76;101196.66;5005424;27;105079;-58
2020/12/17 00:54:39;;;;;;;8.85;7.43;;;;;;;13.10;48.32;101202.09;5004425;27;114471;-57
2020/12/17 00:57:05;;;;;;;10.30;8.27;;;;;;;13.11;48.17;101198.28;5005188;27;98956;-58
2020/12/17 00:59:31;;;;;;;9.68;8.07;;;;;;;13.14;48.32;101203.19;5004451;27;98245;-58
2020/12/17 01:01:57;;;;;;;9.85;8.05;;;;;;;13.13;48.29;101195.34;5004393;27;102452;-57
2020/12/17 01:04:23;;;;;;;9.13;8.00;;;;;;;13.12;48.19;101193.69;5003823;27;127070;-57
2020/12/17 01:06:49;;;;;;;9.38;8.07;;;;;;;13.12;47.78;101186.38;5004932;27;127143;-59
2020/12/17 01:09:15;;;;;;;9.80;8.10;;;;;;;13.11;48.26;101181.25;5023642;27;126609;-57
2020/12/17 01:11:41;;;;;;;8.82;7.93;;;;;;;13.09;48.21;101184.22;5023064;27;97874;-59
2020/12/17 01:14:08;;;;;;;9.85;8.38;;;;;;;13.10;48.18;101182.31;5024173;27;127747;-58
2020/12/17 01:16:34;;;;;;;9.45;7.97;;;;;;;13.09;47.89;101184.22;5024244;27;100283;-59
2020/12/17 01:19:00;;;;;;;9.02;8.07;;;;;;;13.09;48.26;101178.81;5012447;27;126909;-57
2020/12/17 01:21:26;;;;;;;9.90;8.52;;;;;;;13.08;48.65;101184.47;4986453;27;97922;-59
2020/12/17 01:23:52;;;;;;;10.32;9.02;;;;;;;13.07;48.32;101178.25;5010980;27;99271;-57
2020/12/17 01:26:18;;;;;;;10.05;8.85;;;;;;;13.07;48.36;101180.16;5005929;27;127579;-59
2020/12/17 01:28:44;;;;;;;9.35;8.02;;;;;;;13.06;48.58;101175.81;5004228;27;98161;-57
2020/12/17 01:31:13;;;;;;;11.02;8.68;;;;;;;13.05;48.40;101179.59;5003707;27;110787;-57
2020/12/17 01:33:41;;;;;;;10.13;8.35;;;;;;;13.06;48.44;101178.53;5003675;27;104107;-59
2020/12/17 01:36:08;;;;;;;10.32;8.80;;;;;;;13.06;48.59;101175.81;5002145;27;120400;-58
2020/12/17 01:38:35;;;;;;;11.25;9.20;;;;;;;13.04;48.57;101181.47;5002191;27;97923;-59
2020/12/17 01:41:01;;;;;;;10.07;8.98;;;;;;;13.00;48.28;101174.97;5004210;27;108186;-61
2020/12/17 01:43:27;;;;;;;10.82;9.13;;;;;;;13.04;48.69;101178.78;5003983;27;101449;-57
2020/12/17 01:45:53;;;;;;;9.60;8.60;;;;;;;13.03;48.78;101177.16;5008561;27;128484;-57
2020/12/17 01:48:20;;;;;;;11.57;8.93;;;;;;;13.01;48.81;101171.22;5004124;27;126254;-57
2020/12/17 01:50:46;;;;;;;9.82;8.63;;;;;;;12.99;48.63;101174.16;5022473;27;97901;-57
2020/12/17 01:53:13;;;;;;;10.13;8.63;;;;;;;13.01;48.66;101172.03;5024223;27;98594;-58
2020/12/17 01:55:39;;;;;;;9.85;8.52;;;;;;;12.99;48.81;101182.28;5023324;27;98627;-59
2020/12/17 01:58:06;;;;;;;10.15;9.00;;;;;;;12.97;48.77;101178.25;5023755;27;98865;-57
2020/12/17 02:00:36;;;;;;;10.07;8.82;;;;;;;12.94;48.80;101178.75;5023273;27;105599;-57
2020/12/17 02:03:04;;;;;;;10.23;9.00;;;;;;;12.96;48.68;101174.69;5023515;27;118440;-59
2020/12/17 02:05:31;;;;;;;10.15;9.07;;;;;;;12.97;48.47;101173.63;5023568;27;119571;-58
2020/12/17 02:08:00;;;;;;;10.60;9.45;;;;;;;12.95;49.01;101161.44;5005361;27;98014;-59
2020/12/17 02:10:28;;;;;;;11.23;9.40;;;;;;;12.94;48.87;101163.34;5023947;27;97730;-59
2020/12/17 02:12:54;;;;;;;10.30;8.77;;;;;;;12.94;48.91;101166.03;5022961;27;128003;-59
2020/12/17 02:15:21;;;;;;;10.10;9.00;;;;;;;12.93;48.70;101164.44;5021781;27;129122;-57
2020/12/17 02:17:50;;;;;;;10.45;8.75;;;;;;;12.90;48.90;101169.56;5013536;27;98814;-59
2020/12/17 02:20:16;;;;;;;10.32;8.98;;;;;;;12.91;48.90;101168.47;5004004;27;97854;-57
2020/12/17 02:22:42;;;;;;;10.10;9.10;;;;;;;12.89;48.75;101165.19;5004358;27;99473;-57
2020/12/17 02:25:13;;;;;;;12.85;9.65;;;;;;;12.91;48.80;101171.16;5022633;27;128750;-59
2020/12/17 02:27:40;;;;;;;10.25;9.07;;;;;;;12.88;48.89;101167.09;5023623;27;98866;-57
2020/12/17 02:30:07;;;;;;;10.32;9.23;;;;;;;12.89;48.81;101167.91;5024173;27;97930;-57
2020/12/17 02:32:33;;;;;;;10.48;9.30;;;;;;;12.87;49.08;101165.47;5024903;27;98267;-57
2020/12/17 02:34:59;;;;;;;10.15;9.15;;;;;;;12.87;48.65;101168.19;5004246;27;116734;-59
2020/12/17 02:37:25;;;;;;;11.45;9.07;;;;;;;12.85;48.75;101167.66;5003282;27;106554;-58
2020/12/17 02:39:51;;;;;;;10.85;9.38;;;;;;;12.87;48.77;101168.19;5002508;27;118602;-57
2020/12/17 02:42:17;;;;;;;10.48;9.18;;;;;;;12.86;48.74;101165.75;5002636;27;127259;-57
2020/12/17 02:44:43;;;;;;;10.68;9.05;;;;;;;12.82;48.66;101160.06;5015493;27;119144;-57
2020/12/17 02:47:09;;;;;;;11.45;9.38;;;;;;;12.82;48.77;101160.06;5022750;27;121990;-59
2020/12/17 02:49:35;;;;;;;10.63;9.27;;;;;;;12.80;49.11;101158.69;5023082;27;97886;-57
2020/12/17 02:52:01;;;;;;;10.15;9.02;;;;;;;12.80;48.86;101151.38;5022570;27;125571;-59
2020/12/17 02:54:27;;;;;;;10.07;9.00;;;;;;;12.76;48.61;101158.41;5022859;27;128298;-57
2020/12/17 02:56:53;;;;;;;10.43;9.27;;;;;;;12.78;48.81;101159.78;5020578;27;127234;-59
2020/12/17 02:59:19;;;;;;;10.20;8.48;;;;;;;12.73;48.72;101159.75;5022609;27;117239;-59
2020/12/17 03:01:45;;;;;;;10.55;9.25;;;;;;;12.74;48.57;101155.16;5021517;27;98309;-59
2020/12/17 03:04:11;;;;;;;9.85;8.85;;;;;;;12.73;48.52;101148.94;5003934;27;125460;-57
2020/12/17 03:06:37;;;;;;;10.30;8.55;;;;;;;12.73;48.42;101154.34;5023584;27;98342;-60
2020/12/17 03:09:05;;;;;;;11.93;9.18;;;;;;;12.73;48.45;101148.94;5026439;27;115690;-59
2020/12/17 03:11:31;;;;;;;10.35;9.05;;;;;;;12.72;48.63;101143.78;5020122;27;113761;-57
2020/12/17 03:13:57;;;;;;;10.48;8.88;;;;;;;12.70;48.46;101141.34;5005887;27;127332;-59
2020/12/17 03:16:23;;;;;;;10.93;8.57;;;;;;;12.70;48.33;101132.44;5005755;27;127595;-59
2020/12/17 03:18:49;;;;;;;11.00;9.50;;;;;;;12.68;48.41;101132.66;5012079;27;118471;-57
2020/12/17 03:21:15;;;;;;;9.35;8.32;;;;;;;12.68;48.38;101126.44;5025997;27;116447;-59
2020/12/17 03:23:41;;;;;;;11.45;9.05;;;;;;;12.69;48.40;101131.63;5020939;27;127031;-59
2020/12/17 03:26:08;;;;;;;9.82;8.52;;;;;;;12.70;48.29;101140.53;5006142;27;127098;-59
2020/12/17 03:28:34;;;;;;;11.00;8.93;;;;;;;12.68;48.41;101148.09;5005932;27;97827;-60
2020/12/17 03:31:00;;;;;;;10.85;9.75;;;;;;;12.66;48.53;101153.78;5005115;27;127119;-58
2020/12/17 03:33:27;;;;;;;11.48;9.02;;;;;;;12.65;48.30;101148.63;5005245;27;128199;-58
2020/12/17 03:35:53;;;;;;;11.00;9.02;;;;;;;12.64;48.23;101145.09;5003466;27;127892;-57
2020/12/17 03:38:19;;;;;;;12.57;9.50;;;;;;;12.63;48.19;101148.06;5005620;27;117990;-57
2020/12/17 03:40:45;;;;;;;11.50;9.07;;;;;;;12.62;48.02;101143.75;5020074;27;125893;-57
2020/12/17 03:43:11;;;;;;;10.25;8.73;;;;;;;12.60;48.09;101130.47;5025154;27;126802;-59
2020/12/17 03:45:37;;;;;;;10.70;8.57;;;;;;;12.59;47.93;101136.97;5025175;27;128630;-59
2020/12/17 03:48:03;;;;;;;10.10;8.82;;;;;;;12.57;48.37;101130.19;5008864;27;117786;-59
2020/12/17 03:50:29;;;;;;;10.27;8.35;;;;;;;12.55;47.83;101133.16;5005130;27;128132;-58
2020/12/17 03:52:55;;;;;;;10.45;8.82;;;;;;;12.56;48.19;101128.56;5009264;27;126897;-59
2020/12/17 03:55:21;;;;;;;10.75;9.00;;;;;;;12.51;48.18;101130.19;5025199;27;126351;-58
2020/12/17 03:57:47;;;;;;;10.73;9.00;;;;;;;12.49;47.97;101137.72;5026671;27;97821;-59
2020/12/17 04:00:13;;;;;;;10.50;9.07;;;;;;;12.49;48.22;101136.91;5024169;27;129324;-59
2020/12/17 04:02:39;;;;;;;11.30;9.68;;;;;;;12.44;48.45;101134.19;5025049;27;128801;-58
2020/12/17 04:05:05;;;;;;;11.13;9.52;;;;;;;12.44;47.81;101135.00;5025436;27;127400;-57
2020/12/17 04:07:31;;;;;;;10.80;8.93;;;;;;;12.43;47.85;101133.38;5020257;27;117993;-57
2020/12/17 04:09:57;;;;;;;10.93;9.18;;;;;;;12.39;48.01;101129.59;5004626;27;128085;-58
2020/12/17 04:12:23;;;;;;;10.68;8.95;;;;;;;12.39;47.94;101128.78;5004670;27;128808;-59
2020/12/17 04:14:49;;;;;;;10.65;9.55;;;;;;;12.40;47.85;101131.19;5004401;27;128905;-59
2020/12/17 04:17:15;;;;;;;10.70;9.60;;;;;;;12.38;47.72;101124.41;5005407;27;117555;-57
2020/12/17 04:19:41;;;;;;;10.48;9.38;;;;;;;12.36;47.99;101124.69;5004755;27;98807;-59
2020/12/17 04:22:07;;;;;;;11.45;9.55;;;;;;;12.36;47.84;101124.69;5004349;27;128010;-58
2020/12/17 04:24:33;;;;;;;10.82;8.88;;;;;;;12.33;48.20;101122.50;5016450;27;119292;-58
2020/12/17 04:26:59;;;;;;;10.68;9.32;;;;;;;12.34;48.04;101120.63;5007313;27;97934;-58
2020/12/17 04:29:25;;;;;;;10.20;8.95;;;;;;;12.32;47.93;101131.72;5024370;27;127980;-59
2020/12/17 04:31:52;;;;;;;10.20;9.00;;;;;;;12.32;47.87;101125.50;5024531;27;122489;-59
2020/12/17 04:34:18;;;;;;;10.27;9.00;;;;;;;12.32;47.78;101133.59;5024983;27;97793;-58
2020/12/17 04:36:44;;;;;;;9.90;8.88;;;;;;;12.31;47.53;101127.38;5024316;27;117943;-59
2020/12/17 04:39:11;;;;;;;9.93;8.75;;;;;;;12.29;47.56;101121.41;5005267;27;127849;-57
2020/12/17 04:41:37;;;;;;;11.20;9.38;;;;;;;12.27;47.72;101115.47;5026040;27;98418;-59
2020/12/17 04:44:04;;;;;;;10.93;9.40;;;;;;;12.25;47.88;101120.31;5023038;27;114808;-59
2020/12/17 04:46:30;;;;;;;10.23;9.00;;;;;;;12.26;47.69;101127.34;5006178;27;118001;-59
2020/12/17 04:48:56;;;;;;;10.30;8.98;;;;;;;12.25;47.74;101121.13;5006913;27;102456;-59
2020/12/17 04:51:22;;;;;;;11.48;9.40;;;;;;;12.24;47.72;101114.09;4988669;27;127671;-57
2020/12/17 04:53:49;;;;;;;10.55;9.43;;;;;;;12.23;47.90;101123.28;5023210;27;98159;-59
2020/12/17 04:56:18;;;;;;;10.70;9.60;;;;;;;12.23;47.51;101123.28;5012939;27;97721;-57
2020/12/17 04:58:49;;;;;;;12.88;10.07;;;;;;;12.23;47.74;101117.88;5003171;27;98208;-57
2020/12/17 05:01:16;;;;;;;12.00;10.57;;;;;;;12.21;47.54;101117.31;5004918;27;98286;-59
2020/12/17 05:03:47;;;;;;;12.27;10.00;;;;;;;12.22;47.55;101116.25;5016910;27;98656;-58
2020/12/17 05:06:21;;;;;;;11.95;10.05;;;;;;;12.20;47.93;101118.41;5023706;27;111413;-59
2020/12/17 05:08:47;;;;;;;12.23;9.73;;;;;;;12.21;47.64;101119.22;5022688;27;98403;-58
2020/12/17 05:11:16;;;;;;;13.20;10.65;;;;;;;12.18;47.86;101123.28;5025439;27;101942;-57
2020/12/17 05:13:42;;;;;;;11.40;9.63;;;;;;;12.19;47.81;101124.09;5025774;27;98017;-58
2020/12/17 05:16:09;;;;;;;11.35;9.73;;;;;;;12.18;47.62;101119.72;5023668;27;118342;-57
2020/12/17 05:18:35;;;;;;;11.25;9.70;;;;;;;12.18;47.47;101111.63;5025360;27;98376;-59
2020/12/17 05:21:01;;;;;;;11.98;9.88;;;;;;;12.17;47.80;101116.22;5023651;27;129273;-58
2020/12/17 05:23:28;;;;;;;11.75;10.18;;;;;;;12.14;47.74;101114.03;5021826;27;97934;-58
2020/12/17 05:25:55;;;;;;;10.80;9.60;;;;;;;12.16;47.81;101119.19;5018811;27;97752;-58
2020/12/17 05:28:27;;;;;;;11.05;9.27;;;;;;;12.16;47.49;101114.59;5024534;27;99054;-59
2020/12/17 05:30:53;;;;;;;12.38;10.15;;;;;;;12.15;47.73;101121.09;5023356;27;98831;-57
2020/12/17 05:33:20;;;;;;;12.10;9.95;;;;;;;12.14;47.76;101115.94;5020862;27;125450;-57
2020/12/17 05:35:46;;;;;;;11.23;9.80;;;;;;;12.13;47.55;101117.00;5010135;27;108657;-57
2020/12/17 05:38:12;;;;;;;11.52;9.98;;;;;;;12.11;47.79;101111.06;4985598;27;104916;-58
2020/12/17 05:40:42;;;;;;;10.32;8.77;;;;;;;12.09;47.79;101115.91;5003658;27;127652;-60
2020/12/17 05:43:09;;;;;;;11.05;9.40;;;;;;;12.11;47.44;101121.88;5002953;27;111601;-58
2020/12/17 05:45:36;;;;;;;11.45;9.63;;;;;;;12.10;47.44;101118.34;5004345;27;97848;-58
2020/12/17 05:48:12;;;;;;;10.82;9.30;;;;;;;12.07;47.89;101126.19;5003038;27;120100;-58
2020/12/17 05:50:56;;;;;;;11.18;8.93;;;;;;;12.06;47.39;101127.22;5003508;27;98913;-58
2020/12/17 05:53:24;;;;;;;10.07;8.80;;;;;;;12.06;47.18;101128.03;5001968;27;97954;-59
2020/12/17 05:56:05;;;;;;;10.60;9.43;;;;;;;12.04;47.47;101132.91;5017486;27;97724;-58
2020/12/17 05:58:44;;;;;;;10.32;9.18;;;;;;;12.03;47.62;101142.91;5017862;27;98838;-59
2020/12/17 06:01:17;;;;;;;11.13;9.02;;;;;;;12.03;47.65;101147.50;5002634;27;98637;-59
2020/12/17 06:03:43;;;;;;;;;;;;;;;11.96;47.88;101155.00;5003770;27;98445;-59
2020/12/17 06:06:09;;;;;;;10.60;8.45;;;;;;;12.01;47.47;101155.84;5003879;27;106639;-57
2020/12/17 06:08:37;;;;;;;10.52;8.57;;;;;;;11.99;47.56;101152.59;5002752;27;126800;-57
2020/12/17 06:11:06;;;;;;;10.35;8.63;;;;;;;12.02;47.74;101159.34;5003400;27;98161;-57
2020/12/17 06:13:42;;;;;;;10.70;8.73;;;;;;;11.96;47.80;101150.41;5016856;27;97782;-57
2020/12/17 06:16:10;;;;;;;10.55;8.77;;;;;;;11.98;47.49;101152.84;5023824;27;107186;-58
2020/12/17 06:18:51;;;;;;;11.18;8.57;;;;;;;11.98;47.48;101167.16;5023751;27;98436;-59
2020/12/17 06:21:18;;;;;;;11.13;8.40;;;;;;;11.98;47.29;101161.75;5022110;27;98831;-59
2020/12/17 06:23:44;;;;;;;9.75;8.40;;;;;;;11.96;47.28;101155.00;5001677;27;98022;-60
2020/12/17 06:26:10;;;;;;;10.70;8.30;;;;;;;11.97;47.70;101162.84;5018114;27;117824;-58
2020/12/17 06:28:45;;;;;;;10.15;8.43;;;;;;;11.92;47.37;101170.91;5023465;27;98279;-58
2020/12/17 06:31:25;;;;;;;9.60;8.07;;;;;;;11.94;47.45;101170.66;5024040;27;98812;-57
2020/12/17 06:34:04;;;;;;;10.70;8.80;;;;;;;11.94;47.65;101178.75;5024326;27;98029;-58
2020/12/17 06:36:43;;;;;;;10.85;8.88;;;;;;;11.92;47.53;101187.13;5022160;27;97949;-58
2020/12/17 06:39:09;;;;;;;10.57;8.35;;;;;;;11.93;47.28;101186.06;5021021;27;114344;-59
2020/12/17 06:41:35;;;;;;;10.55;8.35;;;;;;;11.95;47.44;101172.31;5019719;27;117788;-58
2020/12/17 06:44:21;;;;;;;10.63;8.55;;;;;;;11.91;47.20;101177.41;5023536;27;98455;-59
2020/12/17 06:46:59;;;;;;;10.88;8.60;;;;;;;11.90;47.18;101178.47;5012743;27;98006;-59
2020/12/17 06:49:30;;;;;;;10.88;8.82;;;;;;;11.88;47.40;101172.50;5000865;27;99529;-57
2020/12/17 06:52:09;;;;;;;11.80;9.18;;;;;;;11.86;47.65;101182.75;5001406;27;98697;-57
2020/12/17 06:54:42;;;;;;;11.30;8.93;;;;;;;11.89;47.18;101184.94;5002914;27;103912;-60
2020/12/17 06:57:18;;;;;;;10.73;9.02;;;;;;;11.88;46.95;101182.50;5002375;27;119587;-58
2020/12/17 06:59:46;;;;;;;11.23;9.40;;;;;;;11.88;47.60;101177.91;5002597;27;98673;-58
2020/12/17 07:02:20;;;;;;;11.80;9.90;;;;;;;11.88;46.99;101177.91;5001056;27;98363;-59
2020/12/17 07:04:50;;;;;;;11.88;10.00;;;;;;;11.89;47.06;101167.91;5001235;27;98103;-57
2020/12/17 07:07:21;;;;;;;12.13;9.73;;;;;;;11.87;47.30;101181.69;5002939;27;97826;-59
2020/12/17 07:09:56;;;;;;;14.13;10.90;;;;;;;11.90;47.20;101183.06;5005797;27;98744;-59
2020/12/17 07:12:34;;;;;;;11.93;10.48;;;;;;;11.88;47.31;101172.50;5023117;27;98248;-59
2020/12/17 07:15:04;;;;;;;12.38;10.70;;;;;;;11.94;46.89;101162.53;5022771;27;98328;-59
2020/12/17 07:17:30;;;;;;;13.80;10.73;;;;;;;11.93;47.26;101161.72;5023144;27;97645;-57
2020/12/17 07:19:56;;;;;;;14.55;11.68;;;;;;;11.95;47.22;101170.41;5019322;27;128966;-59
2020/12/17 07:22:23;;;;;;;13.98;12.02;;;;;;;11.96;47.14;101173.91;5007188;27;127662;-59
2020/12/17 07:24:53;;;;;;;14.18;11.68;;;;;;;12.02;47.24;101175.56;5017881;27;127514;-58
2020/12/17 07:27:22;;;;;;;13.30;11.35;;;;;;;12.07;47.63;101183.72;5003323;27;98056;-57
2020/12/17 07:30:08;;;;;;;14.15;11.80;;;;;;;12.12;47.38;101193.75;5001385;27;98510;-59
2020/12/17 07:32:44;;;;;;;15.02;11.80;;;;;;;12.19;47.27;101197.06;4999810;27;99045;-59
2020/12/17 07:35:10;;;;;;;13.82;12.32;;;;;;;12.22;47.16;101202.75;5019930;27;98017;-59
2020/12/17 07:37:41;;;;;;;14.98;12.25;;;;;;;12.26;47.34;101205.72;5020639;27;98295;-59
2020/12/17 07:40:27;;;;;;;13.85;11.93;;;;;;;12.32;46.97;101201.19;5013141;27;99154;-59
2020/12/17 07:43:13;;;;;;;14.70;12.02;;;;;;;12.40;47.35;101189.88;5004270;27;105626;-57
2020/12/17 07:45:55;;;;;;;15.32;12.60;;;;;;;12.48;47.11;101187.47;5019092;27;97987;-57
2020/12/17 07:48:47;;;;;;;16.00;13.00;;;;;;;12.55;47.24;101187.25;5017677;27;97682;-57
2020/12/17 07:51:13;;;;;;;15.53;13.17;;;;;;;12.62;47.25;101179.72;4999667;27;98500;-58
2020/12/17 07:53:49;;;;;;;14.73;13.15;;;;;;;12.70;46.97;101187.34;5001538;27;99270;-59
2020/12/17 07:56:15;;;;;;;17.67;14.50;;;;;;;12.75;47.07;101195.47;5003339;27;112156;-59
2020/12/17 07:58:42;;;;;;;17.15;14.27;;;;;;;12.82;47.23;101197.94;5002997;27;104546;-58
2020/12/17 08:01:09;;;;;;;17.50;14.88;;;;;;;12.93;47.02;101194.19;5002892;27;128219;-57
2020/12/17 08:03:47;;;;;;;19.08;16.17;;;;;;;13.09;47.31;101208.59;5018584;27;114143;-58
2020/12/17 08:06:24;;;;;;;19.15;15.85;;;;;;;13.24;47.13;101205.13;5023494;27;98853;-57
2020/12/17 08:08:58;;;;;;;19.45;16.45;;;;;;;13.40;46.77;101192.41;5018679;27;97845;-57
2020/12/17 08:11:25;;;;;;;20.05;16.77;;;;;;;13.61;46.74;101202.22;5005018;27;98364;-59
2020/12/17 08:14:05;;;;;;;20.70;17.65;;;;;;;13.88;46.69;101190.31;5003487;27;98556;-58
2020/12/17 08:16:32;;;;;;;20.35;18.15;;;;;;;14.21;45.99;101188.91;5008016;27;98057;-57
2020/12/17 08:18:58;;;;;;;20.48;17.70;;;;;;;14.45;46.17;101179.06;5024217;27;98181;-59
2020/12/17 08:21:25;;;;;;;20.83;17.80;;;;;;;14.74;45.49;101192.06;5021683;27;98343;-58
2020/12/17 08:23:51;;;;;;;20.23;17.85;;;;;;;15.03;45.41;101177.78;5019493;27;98835;-57
2020/12/17 08:26:26;;;;;;;21.92;18.15;;;;;;;15.35;45.60;101180.03;5002486;27;97949;-59
2020/12/17 08:28:52;;;;;;;20.35;17.58;;;;;;;15.65;45.22;101181.75;5005085;27;98063;-59
2020/12/17 08:31:28;;;;;;;21.23;18.85;;;;;;;15.91;45.37;101187.78;5023102;27;99164;-57
2020/12/17 08:33:57;;;;;;;20.55;17.77;;;;;;;16.14;45.65;101191.66;5023515;27;98935;-59
2020/12/17 08:36:25;;;;;;;20.00;17.73;;;;;;;16.40;45.53;101184.84;5023938;27;97661;-57
2020/12/17 08:39:18;;;;;;;19.42;17.05;;;;;;;16.57;45.61;101184.38;5004064;27;98014;-57
2020/12/17 08:41:49;;;;;;;20.35;17.50;;;;;;;16.78;45.80;101181.44;5022817;27;97972;-58
2020/12/17 08:44:20;;;;;;;18.33;16.35;;;;;;;16.74;46.01;101181.25;5020707;27;99413;-58
2020/12/17 08:46:52;;;;;;;17.70;15.77;;;;;;;16.62;46.73;101189.78;5021421;27;98506;-61
2020/12/17 08:49:18;;;;;;;17.30;15.25;;;;;;;16.56;47.24;101185.50;5012983;27;98038;-57
2020/12/17 08:51:47;;;;;;;18.33;16.15;;;;;;;16.43;47.45;101194.38;4999427;27;128340;-58
2020/12/17 08:54:34;;;;;;;18.75;15.55;;;;;;;16.44;47.85;101185.09;5003254;27;99996;-59
2020/12/17 08:57:09;;;;;;;16.77;14.57;;;;;;;16.33;48.22;101191.75;5002780;27;98411;-58
2020/12/17 08:59:36;;;;;;;16.80;15.00;;;;;;;16.28;48.39;101189.09;5001849;27;100145;-58
2020/12/17 09:02:02;;;;;;;16.80;15.00;;;;;;;16.11;48.91;101184.91;5000059;27;110627;-59
2020/12/17 09:04:28;;;;;;;16.80;14.50;;;;;;;16.03;49.16;101185.50;4998967;27;127489;-59
2020/12/17 09:06:59;;;;;;;16.40;14.13;;;;;;;16.06;49.46;101186.84;5000577;27;98227;-59
2020/12/17 09:09:27;;;;;;;16.40;14.55;;;;;;;16.10;49.42;101185.97;5011566;27;97685;-58
2020/12/17 09:12:01;;;;;;;16.23;14.45;;;;;;;16.18;49.50;101193.50;5020855;27;97966;-57
2020/12/17 09:14:37;;;;;;;16.17;14.15;;;;;;;16.28;49.60;101189.09;5001520;27;98650;-59
2020/12/17 09:17:14;;;;;;;18.30;15.35;;;;;;;16.45;49.24;101190.22;5000721;27;98041;-58
2020/12/17 09:19:41;;;;;;;17.42;15.43;;;;;;;16.62;49.38;101188.94;5013125;27;97950;-61
2020/12/17 09:22:07;;;;;;;16.70;14.90;;;;;;;16.66;49.51;101182.66;5022708;27;98414;-57
2020/12/17 09:24:38;;;;;;;17.73;15.80;;;;;;;16.65;49.59;101185.66;5020332;27;129042;-59
2020/12/17 09:27:21;;;;;;;18.35;15.80;;;;;;;16.62;50.13;101187.06;5020281;27;98941;-57
2020/12/17 09:30:15;;;;;;;17.20;15.10;;;;;;;16.44;50.79;101187.81;5022038;27;97767;-58
2020/12/17 09:32:57;;;;;;;16.75;14.95;;;;;;;16.23;51.46;101186.38;5011568;27;106881;-59
2020/12/17 09:35:34;;;;;;;18.90;15.38;;;;;;;16.07;52.32;101183.00;5018802;27;98806;-58
2020/12/17 09:38:06;;;;;;;17.08;14.25;;;;;;;15.92;52.24;101178.56;5021887;27;98195;-59
2020/12/17 09:40:33;;;;;;;18.73;15.02;;;;;;;15.76;52.90;101186.03;5020522;27;98086;-58
2020/12/17 09:43:09;;;;;;;18.17;15.38;;;;;;;15.61;52.77;101191.56;5008902;27;98858;-59
2020/12/17 09:45:46;;;;;;;18.08;14.80;;;;;;;15.50;53.17;101192.72;4999758;27;98652;-59
2020/12/17 09:48:20;;;;;;;17.27;14.68;;;;;;;15.34;53.20;101189.28;5001703;27;98008;-57
2020/12/17 09:51:06;;;;;;;17.50;14.68;;;;;;;15.26;53.52;101174.41;5002017;27;97679;-58
2020/12/17 09:53:43;;;;;;;18.67;15.13;;;;;;;15.22;53.26;101170.63;5001361;27;99167;-57
2020/12/17 09:56:13;;;;;;;18.42;14.77;;;;;;;15.15;53.22;101170.94;5002129;27;98577;-59
2020/12/17 09:58:43;;;;;;;19.30;14.85;;;;;;;15.16;53.57;101163.59;5000781;27;110810;-57
2020/12/17 10:01:09;;;;;;;18.38;14.43;;;;;;;15.20;52.87;101172.78;5002276;27;97873;-58
2020/12/17 10:03:35;;;;;;;18.27;15.20;;;;;;;15.20;53.44;101164.66;5000329;27;127172;-57
2020/12/17 10:06:01;;;;;;;16.30;14.32;;;;;;;15.21;53.10;101167.09;5002007;27;122306;-58
2020/12/17 10:08:27;;;;;;;16.33;13.55;;;;;;;15.22;52.88;101167.91;5001715;27;97853;-59
2020/12/17 10:10:53;;;;;;;17.00;13.95;;;;;;;15.23;52.71;101164.91;5009576;27;97989;-57
2020/12/17 10:13:19;;;;;;;17.13;14.13;;;;;;;15.28;52.60;101163.25;5021217;27;98924;-58
2020/12/17 10:15:45;;;;;;;17.30;14.13;;;;;;;15.34;52.70;101168.38;5020046;27;127313;-58
2020/12/17 10:18:12;;;;;;;16.63;13.52;;;;;;;15.44;52.38;101171.03;5020799;27;126587;-58
2020/12/17 10:20:38;;;;;;;16.83;13.80;;;;;;;15.52;52.03;101174.22;5020636;27;119522;-59
2020/12/17 10:23:04;;;;;;;17.25;14.18;;;;;;;15.66;52.10;101167.88;5021400;27;101481;-59
2020/12/17 10:25:30;;;;;;;17.35;14.07;;;;;;;15.74;52.05;101176.53;5000842;27;128681;-59
2020/12/17 10:27:58;;;;;;;16.30;13.55;;;;;;;15.79;51.71;101181.91;5001025;27;97795;-59
2020/12/17 10:30:24;;;;;;;17.95;14.45;;;;;;;15.86;52.00;101177.78;5001454;27;97805;-59
2020/12/17 10:32:51;;;;;;;17.80;14.02;;;;;;;15.92;51.64;101186.72;5002296;27;104770;-58
2020/12/17 10:35:17;;;;;;;17.73;13.68;;;;;;;15.96;52.02;101182.31;5020643;27;115009;-59
2020/12/17 10:37:43;;;;;;;16.30;13.57;;;;;;;16.03;52.01;101184.69;5020065;27;126839;-58
2020/12/17 10:40:10;;;;;;;16.77;14.38;;;;;;;16.04;51.97;101187.13;5020501;27;97667;-58
2020/12/17 10:42:40;;;;;;;16.75;13.60;;;;;;;16.02;52.46;101175.72;5006967;27;98756;-59
2020/12/17 10:45:07;;;;;;;17.73;14.32;;;;;;;16.07;52.27;101183.00;5001377;27;98588;-58
2020/12/17 10:47:33;;;;;;;18.33;14.85;;;;;;;16.09;52.28;101184.34;4998637;27;117322;-59
2020/12/17 10:49:59;;;;;;;17.80;15.02;;;;;;;16.15;52.72;101188.66;5015225;27;98152;-57
2020/12/17 10:52:25;;;;;;;17.92;15.52;;;;;;;16.22;52.48;101173.91;5021171;27;120017;-59
2020/12/17 10:54:51;;;;;;;19.33;16.08;;;;;;;16.32;52.54;101179.25;5020242;27;116970;-59
2020/12/17 10:57:19;;;;;;;19.50;15.45;;;;;;;16.44;52.31;101185.09;5019987;27;127187;-58
2020/12/17 10:59:46;;;;;;;19.15;15.50;;;;;;;16.52;52.26;101178.22;5020977;27;97918;-59
2020/12/17 11:02:12;;;;;;;19.00;15.38;;;;;;;16.52;52.50;101170.03;5007980;27;99013;-59
2020/12/17 11:04:38;;;;;;;18.98;14.70;;;;;;;16.55;52.32;101172.19;5017067;27;98836;-59
2020/12/17 11:07:04;;;;;;;18.58;15.20;;;;;;;16.60;52.49;101167.47;5019935;27;127835;-58
2020/12/17 11:09:30;;;;;;;17.13;14.48;;;;;;;16.60;52.50;101177.56;5010777;27;97786;-60
2020/12/17 11:11:56;;;;;;;18.63;14.57;;;;;;;16.60;52.93;101180.28;4999244;27;126374;-58
2020/12/17 11:14:22;;;;;;;18.15;14.63;;;;;;;16.58;53.32;101175.13;5000038;27;125978;-59
2020/12/17 11:16:49;;;;;;;17.20;14.40;;;;;;;16.57;53.54;101172.69;5001140;27;97990;-58
2020/12/17 11:19:15;;;;;;;17.38;14.30;;;;;;;16.57;53.75;101173.50;4998837;27;97903;-57